Time;durP1;ratioP1;P1;durP2;ratioP2;P2;SDS_P1;SDS_P2;PMS_P1;PMS_P2;Temp;Humidity;BMP_temperature;BMP_pressure;BME280_temperature;BME280_humidity;BME280_pressure;Samples;Min_cycle;Max_cycle;Signal;HPM_P1;HPM_P2
2022/04/07 00:01:42;;;;;;;7.43;4.90;;;28.00;92.50;;;;;;5126962;28;20028;-50
2022/04/07 00:04:09;;;;;;;6.03;4.93;;;27.90;92.50;;;;;;5126678;28;20020;-54
2022/04/07 00:06:37;;;;;;;6.80;5.15;;;28.00;92.50;;;;;;5126961;28;20027;-49
2022/04/07 00:09:04;;;;;;;7.57;5.05;;;27.90;92.40;;;;;;5126748;28;20042;-54
2022/04/07 00:11:31;;;;;;;5.78;4.97;;;27.90;92.40;;;;;;5126540;28;20130;-51
2022/04/07 00:13:57;;;;;;;6.30;4.68;;;27.90;92.50;;;;;;5126771;28;20304;-49
2022/04/07 00:16:24;;;;;;;11.15;5.10;;;27.90;92.50;;;;;;5126521;28;20019;-52
2022/04/07 00:18:51;;;;;;;7.63;4.90;;;27.90;92.40;;;;;;5126381;28;20030;-54
2022/04/07 00:21:24;;;;;;;8.15;5.25;;;27.90;92.40;;;;;;5126498;28;20034;-47
2022/04/07 00:23:52;;;;;;;6.38;5.00;;;27.90;92.40;;;;;;5126308;28;20242;-49
2022/04/07 00:26:20;;;;;;;10.15;5.95;;;27.90;92.30;;;;;;5126289;28;20036;-48
2022/04/07 00:28:46;;;;;;;5.75;5.10;;;27.90;92.40;;;;;;5126463;28;20019;-50
2022/04/07 00:31:18;;;;;;;7.65;5.80;;;27.90;92.40;;;;;;5108982;28;20039;-49
2022/04/07 00:33:48;;;;;;;9.30;5.55;;;27.90;92.40;;;;;;5126135;28;20068;-52
2022/04/07 00:36:16;;;;;;;5.65;5.00;;;27.90;92.40;;;;;;5126213;28;20024;-54
2022/04/07 00:38:44;;;;;;;5.97;5.18;;;27.80;92.40;;;;;;5126214;28;20216;-53
2022/04/07 00:41:11;;;;;;;7.28;5.30;;;27.80;92.40;;;;;;5126057;28;20254;-47
2022/04/07 00:43:37;;;;;;;6.22;5.60;;;27.80;92.40;;;;;;5126814;28;20027;-52
2022/04/07 00:46:05;;;;;;;6.88;5.63;;;27.80;92.30;;;;;;5125881;28;20031;-49
2022/04/07 00:48:35;;;;;;;7.75;6.07;;;27.80;92.40;;;;;;5126575;28;20112;-50
2022/04/07 00:51:03;;;;;;;8.57;5.78;;;27.80;92.40;;;;;;5125711;28;20067;-50
2022/04/07 00:53:30;;;;;;;6.90;5.78;;;27.80;92.40;;;;;;5126138;28;20078;-52
2022/04/07 00:56:00;;;;;;;8.88;5.60;;;27.80;92.40;;;;;;5125884;28;20035;-53
2022/04/07 00:58:29;;;;;;;8.52;5.85;;;27.80;92.40;;;;;;5125647;28;20024;-59
2022/04/07 01:00:57;;;;;;;9.45;5.80;;;27.80;92.40;;;;;;5125608;28;20250;-51
2022/04/07 01:03:23;;;;;;;9.48;6.35;;;27.80;92.50;;;;;;5126090;28;20069;-54
2022/04/07 01:05:51;;;;;;;11.05;6.35;;;27.80;92.60;;;;;;5125603;28;20095;-54
2022/04/07 01:08:17;;;;;;;8.20;6.47;;;27.80;92.60;;;;;;5126016;28;20015;-52
2022/04/07 01:10:47;;;;;;;8.82;5.78;;;27.80;92.60;;;;;;5125529;28;20036;-49
2022/04/07 01:13:15;;;;;;;10.40;6.32;;;27.80;92.60;;;;;;5126030;28;20020;-59
2022/04/07 01:15:43;;;;;;;10.63;5.57;;;27.80;92.70;;;;;;5125426;28;20019;-53
2022/04/07 01:18:09;;;;;;;8.88;6.38;;;27.80;92.70;;;;;;5126007;28;20122;-52
2022/04/07 01:20:37;;;;;;;9.52;6.95;;;27.80;92.70;;;;;;5125269;28;20020;-53
2022/04/07 01:23:09;;;;;;;8.07;6.75;;;27.80;92.80;;;;;;5125688;28;20019;-53
2022/04/07 01:25:37;;;;;;;9.48;6.45;;;27.80;92.80;;;;;;5125072;28;20339;-54
2022/04/07 01:28:04;;;;;;;9.30;7.00;;;27.80;92.80;;;;;;5125577;28;20030;-52
2022/04/07 01:30:30;;;;;;;13.18;6.88;;;27.80;92.90;;;;;;5125057;28;20027;-53
2022/04/07 01:32:59;;;;;;;10.40;6.38;;;27.80;92.80;;;;;;5124964;28;20024;-55
2022/04/07 01:35:27;;;;;;;7.70;5.82;;;27.80;92.80;;;;;;5124987;28;20019;-53
2022/04/07 01:37:55;;;;;;;10.80;6.70;;;27.80;92.80;;;;;;5125148;28;20035;-56
2022/04/07 01:40:25;;;;;;;12.90;6.60;;;27.80;92.80;;;;;;5124973;28;20315;-56
2022/04/07 01:42:53;;;;;;;10.98;6.25;;;27.80;92.80;;;;;;5125293;28;20043;-58
2022/04/07 01:45:22;;;;;;;10.65;7.15;;;27.80;92.80;;;;;;5125252;28;20102;-54
2022/04/07 01:47:51;;;;;;;11.93;6.95;;;27.80;92.80;;;;;;5125170;28;20023;-50
2022/04/07 01:50:21;;;;;;;7.03;6.32;;;27.70;92.80;;;;;;5124538;28;20076;-55
2022/04/07 01:52:50;;;;;;;8.10;6.13;;;27.70;92.80;;;;;;5125097;28;20054;-56
2022/04/07 01:55:17;;;;;;;9.63;6.20;;;27.70;92.80;;;;;;5124706;28;20036;-55
2022/04/07 01:57:45;;;;;;;14.77;6.75;;;27.70;92.80;;;;;;5124954;28;20062;-54
2022/04/07 02:00:12;;;;;;;9.05;6.32;;;27.70;92.80;;;;;;5124764;28;20027;-53
2022/04/07 02:02:39;;;;;;;12.65;6.65;;;27.70;92.90;;;;;;5124968;28;20085;-49
2022/04/07 02:05:11;;;;;;;10.70;6.40;;;27.70;93.00;;;;;;5124490;28;20028;-56
2022/04/07 02:07:39;;;;;;;8.77;6.20;;;27.70;93.00;;;;;;5124987;28;20078;-54
2022/04/07 02:10:08;;;;;;;9.60;6.70;;;27.70;93.00;;;;;;5124547;28;20051;-56
2022/04/07 02:12:37;;;;;;;13.52;6.55;;;27.70;93.00;;;;;;5124673;28;20194;-57
2022/04/07 02:15:06;;;;;;;12.13;6.65;;;27.70;93.10;;;;;;5124431;28;20032;-56
2022/04/07 02:17:34;;;;;;;6.72;5.88;;;27.70;93.10;;;;;;5124828;28;20072;-54
2022/04/07 02:20:03;;;;;;;13.15;6.65;;;27.70;93.20;;;;;;5124240;28;20030;-53
2022/04/07 02:22:32;;;;;;;10.38;5.80;;;27.60;93.20;;;;;;5124646;28;20043;-53
2022/04/07 02:24:59;;;;;;;16.88;6.50;;;27.60;93.10;;;;;;5124384;28;20088;-57
2022/04/07 02:27:25;;;;;;;10.23;5.82;;;27.70;93.20;;;;;;5124549;28;20016;-49
2022/04/07 02:29:52;;;;;;;12.68;6.10;;;27.70;93.20;;;;;;5124623;28;20300;-54
2022/04/07 02:32:19;;;;;;;11.05;6.45;;;27.70;93.10;;;;;;5124571;28;20261;-54
2022/04/07 02:34:46;;;;;;;12.00;6.40;;;27.60;93.10;;;;;;5124200;28;20043;-52
2022/04/07 02:37:13;;;;;;;9.38;6.07;;;27.60;93.10;;;;;;5124537;28;20079;-54
2022/04/07 02:39:40;;;;;;;10.88;6.90;;;27.60;93.10;;;;;;5124137;28;20027;-51
2022/04/07 02:42:07;;;;;;;9.38;6.43;;;27.60;93.10;;;;;;5124076;28;20019;-53
2022/04/07 02:44:33;;;;;;;9.57;5.95;;;27.60;93.10;;;;;;5124803;28;20031;-54
2022/04/07 02:47:00;;;;;;;8.55;5.85;;;27.50;93.00;;;;;;5128553;28;20039;-52
2022/04/07 02:49:26;;;;;;;10.77;5.60;;;27.50;92.90;;;;;;5128480;28;20026;-52
2022/04/07 02:51:53;;;;;;;10.68;6.28;;;27.50;92.90;;;;;;5128346;28;20039;-54
2022/04/07 02:54:19;;;;;;;10.48;6.10;;;27.50;92.90;;;;;;5128245;28;20280;-50
2022/04/07 02:56:47;;;;;;;8.45;5.70;;;27.50;92.90;;;;;;5128183;28;20016;-56
2022/04/07 02:59:14;;;;;;;9.98;5.57;;;27.50;92.80;;;;;;5128166;28;20056;-55
2022/04/07 03:01:40;;;;;;;10.80;5.85;;;27.50;92.80;;;;;;5128374;28;20091;-54
2022/04/07 03:04:07;;;;;;;12.57;5.82;;;27.50;92.70;;;;;;5127967;28;20031;-51
2022/04/07 03:06:35;;;;;;;10.52;5.40;;;27.50;92.70;;;;;;5128124;28;20035;-54
2022/04/07 03:09:01;;;;;;;9.27;6.05;;;27.50;92.80;;;;;;5128000;28;20028;-51
2022/04/07 03:11:28;;;;;;;11.55;5.82;;;27.50;92.80;;;;;;5127830;28;20016;-50
2022/04/07 03:13:55;;;;;;;8.90;5.30;;;27.50;92.90;;;;;;5128033;28;20050;-53
2022/04/07 03:16:21;;;;;;;7.70;5.40;;;27.50;92.90;;;;;;5127713;28;20066;-57
2022/04/07 03:18:48;;;;;;;7.93;5.47;;;27.50;92.90;;;;;;5127742;28;20313;-47
2022/04/07 03:21:14;;;;;;;15.98;5.82;;;27.50;92.90;;;;;;5127736;28;20024;-52
2022/04/07 03:23:41;;;;;;;11.25;5.70;;;27.40;92.90;;;;;;5127666;28;20050;-49
2022/04/07 03:26:07;;;;;;;14.40;5.68;;;27.40;92.90;;;;;;5127443;28;20015;-57
2022/04/07 03:28:34;;;;;;;9.90;5.25;;;27.40;92.90;;;;;;5127910;28;20039;-53
2022/04/07 03:31:00;;;;;;;8.93;6.03;;;27.40;92.80;;;;;;5127643;28;20031;-54
2022/04/07 03:33:27;;;;;;;9.20;5.30;;;27.40;92.80;;;;;;5127813;28;20049;-55
2022/04/07 03:35:55;;;;;;;10.02;5.70;;;27.40;93.20;;;;;;5127420;28;20107;-53
2022/04/07 03:38:22;;;;;;;9.70;5.60;;;27.40;93.00;;;;;;5127773;28;20084;-53
2022/04/07 03:40:48;;;;;;;9.77;5.80;;;27.40;93.20;;;;;;5127294;28;20015;-49
2022/04/07 03:43:15;;;;;;;8.93;5.60;;;27.40;92.90;;;;;;5127753;28;20053;-53
2022/04/07 03:45:42;;;;;;;10.55;6.22;;;27.40;92.90;;;;;;5127184;28;20042;-55
2022/04/07 03:48:08;;;;;;;14.65;12.50;;;27.50;93.00;;;;;;5127523;28;20026;-52
2022/04/07 03:50:35;;;;;;;18.27;14.27;;;27.50;93.00;;;;;;5126671;28;20280;-48
2022/04/07 03:53:01;;;;;;;14.80;11.77;;;27.40;93.10;;;;;;5126328;28;20199;-52
2022/04/07 03:55:28;;;;;;;11.80;9.60;;;27.50;93.20;;;;;;5125568;28;20019;-53
2022/04/07 03:57:55;;;;;;;12.43;7.90;;;27.50;93.20;;;;;;5126290;28;20027;-61
2022/04/07 04:00:22;;;;;;;13.50;8.02;;;27.50;93.10;;;;;;5126078;28;20042;-54
2022/04/07 04:02:50;;;;;;;13.82;8.40;;;27.50;93.20;;;;;;5126211;28;20238;-53
2022/04/07 04:05:19;;;;;;;11.48;7.25;;;27.50;93.20;;;;;;5125743;28;20035;-48
2022/04/07 04:07:46;;;;;;;10.30;6.57;;;27.40;93.20;;;;;;5125945;28;20027;-53
2022/04/07 04:10:13;;;;;;;10.75;6.65;;;27.40;93.10;;;;;;5125704;28;20022;-55
2022/04/07 04:12:42;;;;;;;11.98;6.35;;;27.40;93.20;;;;;;5125524;28;20311;-56
2022/04/07 04:15:09;;;;;;;11.20;6.25;;;27.50;93.30;;;;;;5125668;28;20031;-52
2022/04/07 04:17:35;;;;;;;13.82;6.55;;;27.40;93.30;;;;;;5125862;28;20035;-57
2022/04/07 04:20:02;;;;;;;10.30;6.30;;;27.40;93.30;;;;;;5125699;28;20040;-52
2022/04/07 04:22:29;;;;;;;15.10;6.82;;;27.40;93.30;;;;;;5125678;28;20031;-52
2022/04/07 04:24:55;;;;;;;10.60;6.60;;;27.40;93.20;;;;;;5125250;28;20024;-55
2022/04/07 04:27:22;;;;;;;11.35;6.03;;;27.40;93.20;;;;;;5125554;28;20056;-57
2022/04/07 04:29:49;;;;;;;9.57;6.45;;;27.40;93.30;;;;;;5125469;28;20266;-50
2022/04/07 04:32:15;;;;;;;10.00;7.40;;;27.40;93.30;;;;;;5125476;28;20205;-54
2022/04/07 04:34:42;;;;;;;17.85;11.18;;;27.40;93.30;;;;;;5125434;28;20034;-51
2022/04/07 04:37:09;;;;;;;26.10;22.55;;;27.40;93.30;;;;;;5125482;28;20303;-49
2022/04/07 04:39:35;;;;;;;32.17;24.85;;;27.40;93.30;;;;;;5125121;28;20034;-50
2022/04/07 04:42:02;;;;;;;43.78;36.30;;;27.40;93.30;;;;;;5125303;28;20087;-52
2022/04/07 04:44:28;;;;;;;32.47;27.65;;;27.40;93.20;;;;;;5125307;28;20043;-48
2022/04/07 04:46:55;;;;;;;24.40;18.52;;;27.40;93.30;;;;;;5125275;28;20086;-52
2022/04/07 04:49:21;;;;;;;26.52;22.45;;;27.40;93.30;;;;;;5125047;28;20249;-53
2022/04/07 04:51:48;;;;;;;45.85;37.30;;;27.40;93.40;;;;;;5049867;28;2140134;-54
2022/04/07 04:54:15;;;;;;;41.17;33.55;;;27.30;93.40;;;;;;5125965;28;20043;-59
2022/04/07 04:56:42;;;;;;;32.17;25.67;;;27.40;93.40;;;;;;5125939;28;20024;-56
2022/04/07 04:59:09;;;;;;;71.30;54.63;;;27.30;93.40;;;;;;5125953;28;20035;-52
2022/04/07 05:01:35;;;;;;;44.53;34.60;;;27.30;93.30;;;;;;5125827;28;20023;-54
2022/04/07 05:04:02;;;;;;;33.17;25.90;;;27.30;93.30;;;;;;5125644;28;20011;-52
2022/04/07 05:06:29;;;;;;;25.20;18.70;;;27.30;93.30;;;;;;5125658;28;20031;-53
2022/04/07 05:08:55;;;;;;;21.50;15.60;;;27.30;93.40;;;;;;5124889;28;20242;-58
2022/04/07 05:11:22;;;;;;;34.95;26.48;;;27.40;93.70;;;;;;5125564;28;20099;-57
2022/04/07 05:13:48;;;;;;;30.45;24.13;;;27.30;93.40;;;;;;5125861;28;20031;-51
2022/04/07 05:16:15;;;;;;;26.85;21.38;;;27.30;93.50;;;;;;5125474;28;20019;-52
2022/04/07 05:18:47;;;;;;;16.58;14.77;;;27.30;93.20;;;;;;5125420;28;20058;-53
2022/04/07 05:21:17;;;;;;;14.77;10.27;;;27.30;93.20;;;;;;5125320;28;20027;-52
2022/04/07 05:23:44;;;;;;;14.80;10.65;;;27.30;93.30;;;;;;5125450;28;20019;-53
2022/04/07 05:26:13;;;;;;;13.32;9.80;;;27.30;93.40;;;;;;5125164;28;20031;-56
2022/04/07 05:28:43;;;;;;;11.70;8.77;;;27.30;93.50;;;;;;5125342;28;20093;-55
2022/04/07 05:31:11;;;;;;;11.68;7.80;;;27.30;93.40;;;;;;5125205;28;20035;-52
2022/04/07 05:33:37;;;;;;;12.40;7.80;;;27.30;93.50;;;;;;5125517;28;20019;-52
2022/04/07 05:36:05;;;;;;;10.75;7.05;;;27.30;93.50;;;;;;5125363;28;20094;-48
2022/04/07 05:38:32;;;;;;;8.93;6.45;;;27.30;93.80;;;;;;5125596;28;20346;-49
2022/04/07 05:40:58;;;;;;;10.93;6.45;;;27.30;93.50;;;;;;5124879;28;20027;-54
2022/04/07 05:43:25;;;;;;;14.18;5.72;;;27.30;93.50;;;;;;5125558;28;20023;-55
2022/04/07 05:45:52;;;;;;;10.07;6.10;;;27.30;93.50;;;;;;5124845;28;20047;-50
2022/04/07 05:48:19;;;;;;;10.52;6.43;;;27.30;93.50;;;;;;5125201;28;20031;-50
2022/04/07 05:50:45;;;;;;;10.13;6.10;;;27.30;93.50;;;;;;5124765;28;20031;-54
2022/04/07 05:53:12;;;;;;;10.68;5.80;;;27.30;93.50;;;;;;5125279;28;20036;-51
2022/04/07 05:55:39;;;;;;;10.65;5.88;;;27.30;93.40;;;;;;5124664;28;20019;-57
2022/04/07 05:58:08;;;;;;;9.55;5.65;;;27.20;93.40;;;;;;5124689;28;20034;-53
2022/04/07 06:00:37;;;;;;;11.52;5.28;;;27.20;93.30;;;;;;5124813;28;20028;-54
2022/04/07 06:03:04;;;;;;;10.02;5.55;;;27.30;93.40;;;;;;5124983;28;20207;-51
2022/04/07 06:05:31;;;;;;;10.73;5.43;;;27.20;93.30;;;;;;5124579;28;20024;-51
2022/04/07 06:07:59;;;;;;;8.38;5.18;;;27.20;93.30;;;;;;5125127;28;20086;-52
2022/04/07 06:10:25;;;;;;;9.93;5.40;;;27.20;93.30;;;;;;5124558;28;20027;-52
2022/04/07 06:12:52;;;;;;;10.50;5.65;;;27.20;93.30;;;;;;5124951;28;20065;-55
2022/04/07 06:15:19;;;;;;;13.30;5.90;;;27.20;93.30;;;;;;5124604;28;20032;-52
2022/04/07 06:17:46;;;;;;;14.45;5.65;;;27.20;93.30;;;;;;5124636;28;20062;-48
2022/04/07 06:20:14;;;;;;;12.63;6.10;;;27.10;93.20;;;;;;5124306;28;20220;-50
2022/04/07 06:22:43;;;;;;;13.82;5.53;;;27.20;93.30;;;;;;5124777;28;20055;-57
2022/04/07 06:25:10;;;;;;;10.90;5.90;;;27.10;93.20;;;;;;5124179;28;20027;-52
2022/04/07 06:27:41;;;;;;;13.82;5.88;;;27.10;93.20;;;;;;5124677;28;20028;-50
2022/04/07 06:30:09;;;;;;;13.02;6.05;;;27.10;93.20;;;;;;5124358;28;20047;-53
2022/04/07 06:32:37;;;;;;;12.05;6.10;;;27.10;93.10;;;;;;5124445;28;20040;-56
2022/04/07 06:35:04;;;;;;;8.50;5.45;;;27.10;93.10;;;;;;5124261;28;20334;-50
2022/04/07 06:37:31;;;;;;;9.73;6.00;;;27.10;93.00;;;;;;5124526;28;20020;-54
2022/04/07 06:40:04;;;;;;;10.93;6.30;;;27.10;93.00;;;;;;5124199;28;20220;-49
2022/04/07 06:42:31;;;;;;;13.43;5.63;;;27.10;93.00;;;;;;5124211;28;20316;-49
2022/04/07 06:44:57;;;;;;;9.70;5.60;;;27.10;92.90;;;;;;5124251;28;20034;-52
2022/04/07 06:47:24;;;;;;;9.07;6.07;;;27.10;92.90;;;;;;5124418;28;20189;-49
2022/04/07 06:49:51;;;;;;;9.25;6.03;;;27.00;92.80;;;;;;5124229;28;20023;-50
2022/04/07 06:52:19;;;;;;;10.23;5.55;;;27.10;92.80;;;;;;5124278;28;20126;-53
2022/04/07 06:54:46;;;;;;;9.45;6.07;;;27.00;92.80;;;;;;5124019;28;20075;-50
2022/04/07 06:57:12;;;;;;;10.65;6.45;;;27.00;92.80;;;;;;5124373;28;20078;-49
2022/04/07 06:59:39;;;;;;;10.63;6.53;;;27.00;92.70;;;;;;5124030;28;20110;-47
2022/04/07 07:02:06;;;;;;;9.73;6.20;;;27.00;92.70;;;;;;5123991;28;20035;-50
2022/04/07 07:04:33;;;;;;;10.07;7.13;;;27.00;92.70;;;;;;5124020;28;20287;-49
2022/04/07 07:07:00;;;;;;;9.82;6.50;;;27.00;92.60;;;;;;5124147;28;20030;-53
2022/04/07 07:09:26;;;;;;;9.38;6.70;;;27.00;92.60;;;;;;5123799;28;20032;-57
2022/04/07 07:11:53;;;;;;;11.52;6.93;;;27.00;92.60;;;;;;5124443;28;20019;-56
2022/04/07 07:14:20;;;;;;;8.55;6.38;;;27.00;92.60;;;;;;5123894;28;20255;-49
2022/04/07 07:16:48;;;;;;;10.75;6.60;;;27.00;92.60;;;;;;5124175;28;20046;-56
2022/04/07 07:19:16;;;;;;;15.90;7.00;;;27.00;92.70;;;;;;5123868;28;20216;-57
2022/04/07 07:21:42;;;;;;;11.82;6.80;;;27.00;92.70;;;;;;5124132;28;20028;-51
2022/04/07 07:24:09;;;;;;;9.77;6.63;;;27.00;92.70;;;;;;5123720;28;20028;-55
2022/04/07 07:26:36;;;;;;;10.27;6.68;;;27.00;92.70;;;;;;5124109;28;20030;-52
2022/04/07 07:29:02;;;;;;;10.90;6.82;;;27.00;92.60;;;;;;5123978;28;20027;-48
2022/04/07 07:31:30;;;;;;;8.65;6.80;;;27.00;92.60;;;;;;5125603;28;20039;-54
2022/04/07 07:33:58;;;;;;;13.10;7.32;;;27.00;92.70;;;;;;5127825;28;20301;-55
2022/04/07 07:36:25;;;;;;;9.43;6.65;;;26.90;92.70;;;;;;5127556;28;20409;-53
2022/04/07 07:38:51;;;;;;;10.05;7.35;;;26.90;92.70;;;;;;5127289;28;20032;-48
2022/04/07 07:41:18;;;;;;;12.25;6.90;;;26.90;92.70;;;;;;5127508;28;20024;-50
2022/04/07 07:43:45;;;;;;;11.05;6.53;;;26.90;92.70;;;;;;5127375;28;20025;-54
2022/04/07 07:46:12;;;;;;;8.15;5.95;;;26.90;92.70;;;;;;5127173;28;20325;-52
2022/04/07 07:48:38;;;;;;;9.43;6.60;;;26.90;92.70;;;;;;5127431;28;20027;-51
2022/04/07 07:51:05;;;;;;;8.55;6.38;;;26.90;92.70;;;;;;5127209;28;20071;-52
2022/04/07 07:53:32;;;;;;;12.95;5.97;;;26.90;92.60;;;;;;5127611;28;20016;-52
2022/04/07 07:55:58;;;;;;;9.18;6.03;;;26.90;92.60;;;;;;5127337;28;20242;-51
2022/04/07 07:58:25;;;;;;;7.32;5.60;;;26.90;92.60;;;;;;5127633;28;20081;-53
2022/04/07 08:00:53;;;;;;;8.23;6.20;;;26.90;92.60;;;;;;5126921;28;20011;-50
2022/04/07 08:03:20;;;;;;;8.45;5.95;;;26.90;92.60;;;;;;5127604;28;20318;-53
2022/04/07 08:05:46;;;;;;;9.70;6.47;;;26.90;92.60;;;;;;5126843;28;20123;-47
2022/04/07 08:08:13;;;;;;;9.35;5.63;;;26.90;92.60;;;;;;5127233;28;20024;-55
2022/04/07 08:10:40;;;;;;;10.60;5.75;;;26.90;92.60;;;;;;5126976;28;20334;-48
2022/04/07 08:13:06;;;;;;;12.20;5.47;;;26.90;92.60;;;;;;5127128;28;20088;-48
2022/04/07 08:15:34;;;;;;;7.50;5.25;;;26.90;92.60;;;;;;5126687;28;20039;-50
2022/04/07 08:18:01;;;;;;;8.68;5.65;;;26.90;92.60;;;;;;5127119;28;20028;-50
2022/04/07 08:20:28;;;;;;;11.95;5.75;;;26.90;92.60;;;;;;5126722;28;20331;-54
2022/04/07 08:22:54;;;;;;;9.55;6.55;;;26.90;92.60;;;;;;5126909;28;20031;-50
2022/04/07 08:25:21;;;;;;;7.50;6.20;;;26.90;92.60;;;;;;5126681;28;20024;-57
2022/04/07 08:27:47;;;;;;;8.90;6.30;;;26.90;92.60;;;;;;5126898;28;20065;-52
2022/04/07 08:30:14;;;;;;;9.75;6.05;;;26.90;92.60;;;;;;5126340;28;20019;-49
2022/04/07 08:32:41;;;;;;;8.55;5.53;;;26.90;92.70;;;;;;5126947;28;20311;-59
2022/04/07 08:35:11;;;;;;;10.02;5.53;;;26.90;92.70;;;;;;5126372;28;20023;-50
2022/04/07 08:37:38;;;;;;;12.82;5.95;;;26.90;92.70;;;;;;5126354;28;20031;-51
2022/04/07 08:40:07;;;;;;;9.85;5.85;;;26.90;92.80;;;;;;5126325;28;20023;-49
2022/04/07 08:42:35;;;;;;;11.05;5.55;;;26.90;92.70;;;;;;5125322;28;20086;-52
2022/04/07 08:45:02;;;;;;;11.98;5.90;;;26.90;92.80;;;;;;5125949;28;20436;-57
2022/04/07 08:47:30;;;;;;;11.60;5.40;;;26.90;92.80;;;;;;5126410;28;20184;-56
2022/04/07 08:49:59;;;;;;;9.50;4.93;;;26.90;92.90;;;;;;5126023;28;20031;-50
2022/04/07 08:52:25;;;;;;;9.23;5.30;;;26.90;92.90;;;;;;5126174;28;20051;-49
2022/04/07 08:54:52;;;;;;;14.88;5.75;;;26.90;92.90;;;;;;5126090;28;20343;-52
2022/04/07 08:57:18;;;;;;;8.55;5.28;;;26.90;92.90;;;;;;5126177;28;20039;-50
2022/04/07 08:59:45;;;;;;;11.90;4.82;;;26.90;92.80;;;;;;5125850;28;20020;-51
2022/04/07 09:02:13;;;;;;;9.57;5.35;;;26.90;92.90;;;;;;5126085;28;20020;-51
2022/04/07 09:04:41;;;;;;;10.38;4.53;;;26.90;92.80;;;;;;5125763;28;20336;-48
2022/04/07 09:07:08;;;;;;;7.80;4.93;;;26.90;92.80;;;;;;5125679;28;20355;-50
2022/04/07 09:09:36;;;;;;;9.00;4.60;;;26.90;92.90;;;;;;5125761;28;20316;-53
2022/04/07 09:12:03;;;;;;;11.02;5.05;;;26.90;92.80;;;;;;5125614;28;20043;-49
2022/04/07 09:14:37;;;;;;;9.10;4.53;;;26.80;92.90;;;;;;5125545;28;20330;-50
2022/04/07 09:17:04;;;;;;;11.25;5.00;;;26.80;92.90;;;;;;5125599;28;20036;-54
2022/04/07 09:19:34;;;;;;;10.38;4.85;;;26.80;93.00;;;;;;5125466;28;20031;-53
2022/04/07 09:22:09;;;;;;;9.95;4.85;;;26.80;92.90;;;;;;5125457;28;20028;-48
2022/04/07 09:24:38;;;;;;;9.45;4.50;;;26.80;92.90;;;;;;5125322;28;20051;-48
2022/04/07 09:27:06;;;;;;;8.55;4.88;;;26.80;93.00;;;;;;5125339;28;20024;-50
2022/04/07 09:29:47;;;;;;;8.43;4.28;;;26.80;93.00;;;;;;5125430;28;20023;-52
2022/04/07 09:32:43;;;;;;;11.95;4.50;;;26.80;93.00;;;;;;5125410;28;20338;-54
2022/04/07 09:35:11;;;;;;;11.48;4.63;;;26.80;93.00;;;;;;5125251;28;20019;-53
2022/04/07 09:37:40;;;;;;;9.30;4.85;;;26.80;93.00;;;;;;5125123;28;20073;-50
2022/04/07 09:40:07;;;;;;;9.27;4.68;;;26.80;92.90;;;;;;5125246;28;20019;-53
2022/04/07 09:42:34;;;;;;;8.77;4.40;;;26.80;92.90;;;;;;5125367;28;20023;-52
2022/04/07 09:45:02;;;;;;;16.13;4.47;;;26.80;93.00;;;;;;5124768;28;20064;-52
2022/04/07 09:47:39;;;;;;;10.98;4.97;;;26.80;93.00;;;;;;5125264;28;20024;-50
2022/04/07 09:50:07;;;;;;;10.32;4.60;;;26.80;93.00;;;;;;5124834;28;20042;-53
2022/04/07 09:52:33;;;;;;;11.18;4.38;;;26.80;93.10;;;;;;5125050;28;20312;-55
2022/04/07 09:55:06;;;;;;;13.07;4.63;;;26.80;93.10;;;;;;5124601;28;20019;-56
2022/04/07 09:57:34;;;;;;;8.93;4.70;;;26.80;93.10;;;;;;5124803;28;20312;-57
2022/04/07 10:00:03;;;;;;;8.05;4.28;;;26.80;93.10;;;;;;5124735;28;20326;-55
2022/04/07 10:02:30;;;;;;;10.85;4.78;;;26.80;93.10;;;;;;5125010;28;20054;-51
2022/04/07 10:04:58;;;;;;;7.82;4.68;;;26.80;93.10;;;;;;5124529;28;20095;-51
2022/04/07 10:07:28;;;;;;;12.07;4.68;;;26.80;93.00;;;;;;5124898;28;20035;-49
2022/04/07 10:09:55;;;;;;;9.00;4.70;;;26.80;92.90;;;;;;5124908;28;20032;-47
2022/04/07 10:12:22;;;;;;;9.32;5.20;;;26.80;92.90;;;;;;5124548;28;20023;-53
2022/04/07 10:14:49;;;;;;;7.60;4.63;;;26.80;92.90;;;;;;5124637;28;20323;-56
2022/04/07 10:17:16;;;;;;;8.68;4.60;;;26.80;92.80;;;;;;5124720;28;20185;-50
2022/04/07 10:19:49;;;;;;;10.00;4.93;;;26.80;92.80;;;;;;5124454;28;20016;-53
2022/04/07 10:22:44;;;;;;;7.95;4.85;;;26.80;92.80;;;;;;5124563;28;20300;-51
2022/04/07 10:25:12;;;;;;;9.20;4.78;;;26.70;92.80;;;;;;5124174;28;20024;-54
2022/04/07 10:27:52;;;;;;;6.95;4.13;;;26.80;92.90;;;;;;5124655;28;20096;-52
2022/04/07 10:30:19;;;;;;;8.95;4.60;;;26.80;92.90;;;;;;5124191;28;20189;-55
2022/04/07 10:32:47;;;;;;;10.18;5.20;;;26.80;92.90;;;;;;5124511;28;20085;-54
2022/04/07 10:35:34;;;;;;;9.68;5.00;;;26.80;92.90;;;;;;5124244;28;20019;-54
2022/04/07 10:38:11;;;;;;;9.98;4.95;;;26.80;93.00;;;;;;5124558;28;20031;-56
2022/04/07 10:40:56;;;;;;;9.85;4.95;;;26.80;93.00;;;;;;5124304;28;20028;-48
2022/04/07 10:43:25;;;;;;;9.32;4.95;;;26.80;93.00;;;;;;5124633;28;20329;-52
2022/04/07 10:46:08;;;;;;;10.95;5.13;;;26.80;93.10;;;;;;5124190;28;20231;-54
2022/04/07 10:48:35;;;;;;;10.50;5.35;;;26.80;93.10;;;;;;5124645;28;20036;-52
2022/04/07 10:51:09;;;;;;;11.27;5.35;;;26.80;93.20;;;;;;5124187;28;20031;-53
2022/04/07 10:53:53;;;;;;;14.25;5.63;;;26.70;93.20;;;;;;5124592;28;20173;-51
2022/04/07 10:56:34;;;;;;;15.82;5.82;;;26.80;93.20;;;;;;5124186;28;20023;-50
2022/04/07 10:59:25;;;;;;;11.77;5.70;;;26.80;93.20;;;;;;5124024;28;20035;-53
2022/04/07 11:02:03;;;;;;;13.07;5.35;;;26.80;93.30;;;;;;5124002;28;20339;-51
2022/04/07 11:05:00;;;;;;;12.85;5.18;;;26.80;93.30;;;;;;5124073;28;20040;-55
2022/04/07 11:07:32;;;;;;;12.20;5.20;;;26.70;93.30;;;;;;5127984;28;20094;-52
2022/04/07 11:09:59;;;;;;;7.82;5.45;;;26.80;93.30;;;;;;5128276;28;20030;-52
2022/04/07 11:12:39;;;;;;;10.80;5.70;;;26.80;93.30;;;;;;5127991;28;20027;-56
2022/04/07 11:15:06;;;;;;;10.60;5.68;;;26.80;93.40;;;;;;5127899;28;20027;-52
2022/04/07 11:17:35;;;;;;;20.42;5.90;;;26.80;93.30;;;;;;5128193;28;20350;-53
2022/04/07 11:20:05;;;;;;;13.90;7.03;;;26.80;93.40;;;;;;5127894;28;20031;-52
2022/04/07 11:22:51;;;;;;;12.38;7.20;;;26.80;93.30;;;;;;5128108;28;20032;-54
2022/04/07 11:25:34;;;;;;;11.93;6.78;;;26.80;93.30;;;;;;5127644;28;20255;-50
2022/04/07 11:28:22;;;;;;;11.82;6.35;;;26.80;93.40;;;;;;5128119;28;20069;-48
2022/04/07 11:30:49;;;;;;;11.20;6.32;;;26.80;93.40;;;;;;5127699;28;20038;-57
2022/04/07 11:33:27;;;;;;;11.20;6.30;;;26.80;93.40;;;;;;5128002;28;20027;-53
2022/04/07 11:36:00;;;;;;;16.92;6.05;;;26.80;93.40;;;;;;5127556;28;20047;-51
2022/04/07 11:38:47;;;;;;;16.15;6.07;;;26.80;93.40;;;;;;5128037;28;20256;-51
2022/04/07 11:41:19;;;;;;;9.55;6.35;;;26.80;93.40;;;;;;5127329;28;20032;-56
2022/04/07 11:43:52;;;;;;;11.18;6.60;;;26.80;93.50;;;;;;5127551;28;20031;-55
2022/04/07 11:46:32;;;;;;;14.85;6.30;;;26.80;93.50;;;;;;5127208;28;20474;-50
2022/04/07 11:49:00;;;;;;;13.40;6.65;;;26.80;93.50;;;;;;5127431;28;20263;-51
2022/04/07 11:51:27;;;;;;;11.88;6.78;;;26.80;93.50;;;;;;5127111;28;20099;-52
2022/04/07 11:53:55;;;;;;;11.18;6.32;;;26.80;93.50;;;;;;5127439;28;20216;-52
2022/04/07 11:56:27;;;;;;;13.98;7.05;;;26.80;93.50;;;;;;5127153;28;20069;-52
2022/04/07 11:58:54;;;;;;;;;;;26.80;93.60;;;;;;5127274;28;20031;-54
2022/04/07 12:01:21;;;;;;;13.45;7.72;;;26.80;93.60;;;;;;5127227;28;19900;-49
2022/04/07 12:04:00;;;;;;;17.05;7.82;;;26.80;93.60;;;;;;5127096;28;20032;-52
2022/04/07 12:06:31;;;;;;;13.80;8.25;;;26.80;93.60;;;;;;5126837;28;20038;-50
2022/04/07 12:08:59;;;;;;;13.15;8.30;;;26.80;93.60;;;;;;5127160;28;20023;-52
2022/04/07 12:11:30;;;;;;;17.00;8.52;;;26.80;93.70;;;;;;5126712;28;20050;-51
2022/04/07 12:13:58;;;;;;;15.65;8.80;;;26.80;93.70;;;;;;5126843;28;20023;-53
2022/04/07 12:16:26;;;;;;;11.18;8.32;;;26.90;93.80;;;;;;5126372;28;20035;-53
2022/04/07 12:18:55;;;;;;;13.80;8.20;;;26.90;93.90;;;;;;5126552;28;20028;-50
2022/04/07 12:21:25;;;;;;;17.33;9.40;;;26.90;93.90;;;;;;5126662;28;20019;-47
2022/04/07 12:24:14;;;;;;;18.65;9.13;;;26.90;94.10;;;;;;5126602;28;20227;-53
2022/04/07 12:26:46;;;;;;;13.43;11.07;;;26.90;94.10;;;;;;5126713;28;20027;-52
2022/04/07 12:29:30;;;;;;;15.55;11.48;;;26.90;94.20;;;;;;5126378;28;20031;-53
2022/04/07 12:32:06;;;;;;;18.73;10.63;;;26.90;94.20;;;;;;5126567;28;20229;-55
2022/04/07 12:34:34;;;;;;;17.25;9.27;;;26.90;94.30;;;;;;5126221;28;20038;-51
2022/04/07 12:37:01;;;;;;;17.23;8.80;;;26.90;94.30;;;;;;5126774;28;20024;-49
2022/04/07 12:39:32;;;;;;;13.00;7.93;;;26.90;94.20;;;;;;5126346;28;20081;-55
2022/04/07 12:42:09;;;;;;;16.27;7.40;;;26.90;94.30;;;;;;5126267;28;20360;-53
2022/04/07 12:44:43;;;;;;;12.23;7.45;;;26.90;94.20;;;;;;5126151;28;20059;-55
2022/04/07 12:47:16;;;;;;;17.27;7.47;;;26.90;94.20;;;;;;5126183;28;20038;-54
2022/04/07 12:50:01;;;;;;;13.13;7.07;;;26.90;94.10;;;;;;5126116;28;20027;-51